Time;durP1;ratioP1;P1;durP2;ratioP2;P2;SDS_P1;SDS_P2;PMS_P1;PMS_P2;Temp;Humidity;BMP_temperature;BMP_pressure;BME280_temperature;BME280_humidity;BME280_pressure;Samples;Min_cycle;Max_cycle;Signal;HPM_P1;HPM_P2
2022/12/18 01:51:36;;;;;;;7.60;5.20;;;;;;;5.00;100.00;101272.02;104376;1310;1002509;-59
2022/12/18 01:54:03;;;;;;;7.80;5.50;;;;;;;8.32;98.43;101264.05;105442;1307;22000;-58
2022/12/18 01:56:30;;;;;;;6.10;4.60;;;;;;;9.08;90.13;101267.63;105333;1312;21964;-58
2022/12/18 01:59:04;;;;;;;5.80;4.00;;;;;;;9.20;86.96;101267.53;105355;1312;22030;-58
2022/12/18 02:01:30;;;;;;;5.20;3.40;;;;;;;9.20;86.20;101272.45;105322;1312;21964;-59
2022/12/18 02:03:56;;;;;;;4.90;3.30;;;;;;;9.19;85.35;101272.61;105123;1309;437351;-58
2022/12/18 02:06:33;;;;;;;5.40;3.70;;;;;;;9.42;82.89;101273.30;105613;1309;21967;-59
2022/12/18 02:09:28;;;;;;;5.60;3.80;;;;;;;9.56;81.28;101282.69;105609;1309;21967;-59
2022/12/18 02:12:04;;;;;;;6.10;3.90;;;;;;;9.60;79.33;101287.09;104922;1309;1002625;-59
2022/12/18 02:14:50;;;;;;;5.50;3.80;;;;;;;9.73;78.66;101288.39;105608;1309;22022;-58
2022/12/18 02:17:19;;;;;;;6.20;4.00;;;;;;;9.77;77.25;101292.98;105553;1308;21967;-58
2022/12/18 02:20:04;;;;;;;5.80;3.70;;;;;;;9.76;76.47;101298.05;105550;1308;21976;-58
2022/12/18 02:22:42;;;;;;;7.40;4.20;;;;;;;9.65;76.63;101307.10;105686;1309;21987;-59
2022/12/18 02:25:35;;;;;;;7.70;4.70;;;;;;;9.59;75.76;101313.54;105617;1309;22053;-58
2022/12/18 02:28:02;;;;;;;7.90;4.70;;;;;;;9.62;75.26;101316.89;105679;1308;21979;-59
2022/12/18 02:30:29;;;;;;;8.60;5.90;;;;;;;9.52;74.97;101314.54;105618;1307;22026;-58
2022/12/18 02:32:55;;;;;;;6.70;5.00;;;;;;;9.44;74.01;101321.66;105689;1309;21978;-58
2022/12/18 02:35:25;;;;;;;8.00;5.60;;;;;;;9.40;73.16;101330.58;105549;1310;21971;-58
2022/12/18 02:37:54;;;;;;;7.40;5.30;;;;;;;9.24;71.89;101337.45;105433;1309;21986;-59
2022/12/18 02:40:20;;;;;;;10.10;5.80;;;;;;;9.12;71.80;101340.84;105657;1309;21966;-58
2022/12/18 02:42:45;;;;;;;8.40;5.50;;;;;;;9.16;72.88;101343.33;105592;1308;21954;-59
2022/12/18 02:45:12;;;;;;;8.10;5.70;;;;;;;9.40;73.28;101343.70;105645;1309;22089;-58
2022/12/18 02:47:40;;;;;;;8.60;5.80;;;;;;;9.45;72.52;101347.08;105649;1304;21988;-58
2022/12/18 02:50:20;;;;;;;10.50;6.40;;;;;;;9.54;72.26;101347.31;105723;1309;21999;-58
2022/12/18 02:53:17;;;;;;;9.10;6.30;;;;;;;9.70;70.93;101342.00;104127;1308;1003166;-58
2022/12/18 02:55:53;;;;;;;8.80;5.70;;;;;;;9.64;70.01;101350.72;105626;1305;21964;-58
2022/12/18 02:58:49;;;;;;;10.10;6.00;;;;;;;9.51;68.79;101356.24;105655;1302;22024;-59
2022/12/18 03:01:24;;;;;;;10.80;5.60;;;;;;;9.69;68.04;101354.61;105626;1309;21975;-58
2022/12/18 03:03:58;;;;;;;7.80;5.40;;;;;;;9.58;68.88;101367.34;105597;1307;21989;-58
2022/12/18 03:06:30;;;;;;;9.90;5.40;;;;;;;9.88;68.59;101376.14;105590;1309;21962;-57
2022/12/18 03:09:02;;;;;;;7.50;5.30;;;;;;;9.90;67.44;101385.61;105662;1309;23720;-58
2022/12/18 03:12:29;;;;;;;10.10;5.90;;;;;;;9.92;66.90;101389.12;105645;1309;22041;-58
2022/12/18 03:14:23;;;;;;;8.90;5.90;;;;;;;9.65;68.37;101393.67;105545;1309;21970;-59
2022/12/18 03:16:51;;;;;;;9.20;5.60;;;;;;;9.60;68.76;101394.16;105509;1309;21970;-59
2022/12/18 03:19:19;;;;;;;10.60;6.20;;;;;;;9.68;68.43;101388.77;105696;1309;22005;-59
2022/12/18 03:21:51;;;;;;;7.80;5.60;;;;;;;9.57;67.52;101390.44;105763;1308;21981;-59
2022/12/18 03:24:17;;;;;;;8.40;5.80;;;;;;;9.51;68.28;101391.45;105719;1309;21979;-58
2022/12/18 03:26:45;;;;;;;9.90;5.80;;;;;;;9.47;69.17;101395.10;105743;1309;21965;-58
2022/12/18 03:29:17;;;;;;;8.10;5.40;;;;;;;9.48;68.78;101395.47;105722;1309;21966;-58
2022/12/18 03:31:47;;;;;;;9.60;6.10;;;;;;;9.50;68.40;101396.88;105690;1309;21993;-58
2022/12/18 03:34:18;;;;;;;8.00;5.60;;;;;;;9.54;68.35;101402.52;105720;1307;22008;-58
2022/12/18 03:36:43;;;;;;;10.30;5.20;;;;;;;9.60;68.54;101407.83;105672;1309;21979;-59
2022/12/18 03:39:09;;;;;;;9.00;5.70;;;;;;;9.62;69.13;101415.20;105697;1309;21963;-59
2022/12/18 03:41:47;;;;;;;10.40;6.40;;;;;;;9.73;68.69;101421.77;105647;1312;23071;-59
2022/12/18 03:45:15;;;;;;;9.60;6.30;;;;;;;9.69;67.61;101433.31;105749;1309;21967;-58
2022/12/18 03:47:49;;;;;;;9.30;6.20;;;;;;;9.65;67.62;101439.77;105408;1309;22041;-58
2022/12/18 03:50:22;;;;;;;9.20;5.70;;;;;;;9.53;66.56;101439.47;105661;1309;21995;-57
2022/12/18 03:53:08;;;;;;;10.70;6.90;;;;;;;9.54;66.79;101440.52;105525;1310;21967;-58
2022/12/18 03:55:34;;;;;;;9.90;6.20;;;;;;;9.53;66.65;101436.14;105623;1309;21967;-59
2022/12/18 03:58:01;;;;;;;11.40;7.10;;;;;;;9.46;66.70;101435.57;105613;1309;21971;-58
2022/12/18 04:00:26;;;;;;;10.10;7.10;;;;;;;9.23;67.50;101439.88;105679;1309;21971;-58
2022/12/18 04:02:53;;;;;;;10.90;6.60;;;;;;;9.05;67.77;101441.63;105651;1309;21974;-59
2022/12/18 04:05:19;;;;;;;10.40;6.80;;;;;;;8.84;68.23;101447.52;105641;1308;21970;-58
2022/12/18 04:07:47;;;;;;;9.00;6.80;;;;;;;8.79;68.80;101448.52;105698;1309;22438;-58
2022/12/18 04:10:12;;;;;;;10.40;6.60;;;;;;;8.82;68.76;101452.21;105625;1304;21960;-58
2022/12/18 04:12:38;;;;;;;10.10;6.70;;;;;;;8.94;68.94;101456.56;105566;1304;21975;-58
2022/12/18 04:15:05;;;;;;;11.20;7.30;;;;;;;8.93;68.45;101457.41;105636;1301;22019;-58
2022/12/18 04:17:31;;;;;;;11.70;6.90;;;;;;;8.91;67.96;101461.77;105644;1309;21974;-59
2022/12/18 04:19:57;;;;;;;12.60;7.50;;;;;;;8.83;67.52;101460.45;105658;1308;21983;-59
2022/12/18 04:22:23;;;;;;;12.00;8.30;;;;;;;8.78;66.66;101462.67;105607;1309;21973;-58
2022/12/18 04:24:48;;;;;;;12.40;8.30;;;;;;;9.00;65.61;101465.02;105608;1309;21964;-58
2022/12/18 04:27:14;;;;;;;14.20;9.20;;;;;;;9.05;64.63;101469.12;105647;1299;21968;-59
2022/12/18 04:29:40;;;;;;;15.30;9.10;;;;;;;8.85;63.41;101474.13;105636;1308;21964;-58
2022/12/18 04:32:07;;;;;;;14.30;9.00;;;;;;;8.73;63.70;101479.94;105563;1299;21949;-58
2022/12/18 04:34:32;;;;;;;14.10;8.60;;;;;;;8.49;63.76;101489.73;105601;1305;22006;-57
2022/12/18 04:36:58;;;;;;;16.20;9.30;;;;;;;8.35;64.08;101495.65;105638;1304;21966;-58
2022/12/18 04:39:24;;;;;;;14.30;9.10;;;;;;;8.32;63.74;101497.52;105670;1309;21974;-59
2022/12/18 04:41:50;;;;;;;16.30;9.90;;;;;;;8.22;63.72;101506.82;105679;1304;22086;-59
2022/12/18 04:44:17;;;;;;;16.20;10.20;;;;;;;8.14;63.77;101517.38;105633;1309;21983;-60
2022/12/18 04:46:42;;;;;;;15.60;10.70;;;;;;;8.16;64.02;101517.05;105622;1309;21961;-60
2022/12/18 04:49:10;;;;;;;16.60;10.50;;;;;;;8.13;63.80;101522.77;105714;1309;21990;-60
2022/12/18 04:51:37;;;;;;;15.30;9.60;;;;;;;8.14;64.06;101527.32;105713;1309;22741;-60
2022/12/18 04:54:02;;;;;;;16.60;10.30;;;;;;;8.07;64.49;101531.42;105753;1309;21960;-60
2022/12/18 04:56:30;;;;;;;17.30;10.50;;;;;;;8.10;64.46;101536.02;105585;1309;22008;-60
2022/12/18 04:58:56;;;;;;;18.40;11.10;;;;;;;8.13;64.07;101541.48;105688;1305;21961;-58
2022/12/18 05:01:22;;;;;;;17.80;10.80;;;;;;;8.13;63.94;101537.27;104919;1306;1002525;-57
2022/12/18 05:03:50;;;;;;;17.80;10.90;;;;;;;8.14;64.02;101533.79;105690;1303;21968;-58
2022/12/18 05:06:16;;;;;;;20.60;12.10;;;;;;;8.14;63.40;101534.14;105712;1308;21983;-57
2022/12/18 05:08:42;;;;;;;20.70;12.40;;;;;;;8.02;63.18;101537.10;105695;1309;22008;-57
2022/12/18 05:11:10;;;;;;;20.00;11.90;;;;;;;8.04;63.72;101534.85;105621;1309;21972;-56
2022/12/18 05:13:37;;;;;;;24.40;12.90;;;;;;;8.05;63.38;101535.04;105731;1308;21965;-60
2022/12/18 05:16:04;;;;;;;19.80;12.40;;;;;;;8.11;63.19;101540.23;105666;1309;22772;-60
2022/12/18 05:18:30;;;;;;;23.00;12.80;;;;;;;8.01;63.38;101548.44;105677;1304;22005;-60
2022/12/18 05:20:56;;;;;;;22.60;13.00;;;;;;;7.98;63.48;101550.64;105661;1308;21956;-60
2022/12/18 05:23:23;;;;;;;21.90;12.60;;;;;;;7.97;63.38;101552.38;105676;1308;21960;-60
2022/12/18 05:25:56;;;;;;;21.10;13.00;;;;;;;8.09;63.39;101554.17;105619;1308;21968;-59
2022/12/18 05:28:22;;;;;;;24.10;13.80;;;;;;;8.20;62.99;101555.40;105658;1309;21960;-59
2022/12/18 05:30:53;;;;;;;20.70;12.50;;;;;;;8.14;63.42;101562.47;105734;1309;22019;-61
2022/12/18 05:33:19;;;;;;;22.50;13.80;;;;;;;8.06;63.01;101566.52;105684;1309;21973;-61
2022/12/18 05:35:56;;;;;;;19.80;12.40;;;;;;;8.02;63.18;101571.18;105625;1309;21966;-59
2022/12/18 05:38:24;;;;;;;21.10;13.40;;;;;;;8.04;63.17;101578.89;105647;1309;21977;-57
2022/12/18 05:40:50;;;;;;;22.40;14.00;;;;;;;8.04;63.08;101583.27;105643;1309;21961;-58
2022/12/18 05:43:16;;;;;;;23.00;13.40;;;;;;;8.12;63.00;101582.89;105666;1308;22001;-60
2022/12/18 05:45:42;;;;;;;24.30;14.90;;;;;;;8.13;62.81;101588.15;105649;1309;22007;-59
2022/12/18 05:48:08;;;;;;;23.00;14.20;;;;;;;8.10;62.67;101588.98;105664;1309;21978;-59
2022/12/18 05:50:38;;;;;;;23.50;13.70;;;;;;;8.10;62.78;101591.24;105686;1309;22018;-60
2022/12/18 05:53:04;;;;;;;23.60;14.00;;;;;;;8.09;62.99;101598.23;105013;1309;1003483;-59
2022/12/18 05:55:34;;;;;;;27.70;15.30;;;;;;;8.00;62.88;101603.66;105764;1309;21967;-60
2022/12/18 05:58:00;;;;;;;25.20;14.30;;;;;;;8.08;62.85;101608.52;105800;1307;23081;-60
2022/12/18 06:00:26;;;;;;;30.30;16.60;;;;;;;8.08;62.80;101611.14;105721;1309;21957;-59
2022/12/18 06:02:52;;;;;;;27.30;15.70;;;;;;;8.27;63.82;101620.21;105680;1309;21968;-60
2022/12/18 06:05:17;;;;;;;25.60;15.90;;;;;;;8.39;63.31;101623.55;105693;1308;22065;-59
2022/12/18 06:07:44;;;;;;;26.60;15.20;;;;;;;8.40;62.53;101626.20;105599;1309;21964;-59
2022/12/18 06:10:10;;;;;;;27.10;16.70;;;;;;;8.28;61.97;101632.30;105615;1309;21998;-60
2022/12/18 06:12:35;;;;;;;32.10;17.80;;;;;;;8.17;62.46;101640.85;105719;1309;21965;-61
2022/12/18 06:15:01;;;;;;;27.10;15.70;;;;;;;8.15;62.51;101646.41;105638;1309;21967;-57
2022/12/18 06:17:32;;;;;;;27.50;15.80;;;;;;;8.15;62.97;101659.52;105682;1309;21989;-56
2022/12/18 06:19:57;;;;;;;29.60;17.30;;;;;;;8.15;62.67;101668.27;105720;1309;21961;-58
2022/12/18 06:22:24;;;;;;;28.20;16.70;;;;;;;8.09;63.05;101677.05;105711;1308;21961;-59
2022/12/18 06:24:49;;;;;;;30.20;16.80;;;;;;;8.28;62.41;101676.90;105677;1309;21987;-60
2022/12/18 06:27:15;;;;;;;27.40;17.10;;;;;;;8.33;61.82;101679.95;105703;1309;22030;-60
2022/12/18 06:29:41;;;;;;;28.20;16.20;;;;;;;8.35;61.58;101684.01;105706;1309;22076;-60
2022/12/18 06:32:08;;;;;;;25.90;15.40;;;;;;;8.42;61.93;101683.24;105664;1309;21985;-60
2022/12/18 06:34:33;;;;;;;28.00;15.30;;;;;;;8.49;62.02;101690.40;105693;1306;21967;-60
2022/12/18 06:37:00;;;;;;;27.30;15.90;;;;;;;8.43;62.08;101691.67;105646;1304;21973;-57
2022/12/18 06:39:29;;;;;;;24.50;15.00;;;;;;;8.38;61.98;101690.71;105647;1309;21983;-57
2022/12/18 06:41:54;;;;;;;29.00;16.40;;;;;;;8.40;61.24;101694.77;105703;1309;21966;-58
2022/12/18 06:44:20;;;;;;;26.70;16.20;;;;;;;8.36;60.45;101698.55;105619;1307;21969;-58
2022/12/18 06:46:48;;;;;;;27.80;16.10;;;;;;;8.23;60.26;101698.13;105835;1307;23697;-58
2022/12/18 06:49:15;;;;;;;26.90;15.20;;;;;;;8.21;60.54;101702.82;105717;1309;22071;-59
2022/12/18 06:51:42;;;;;;;24.80;14.70;;;;;;;8.16;60.25;101705.69;105674;1309;21975;-57
2022/12/18 06:54:08;;;;;;;24.80;15.30;;;;;;;7.85;60.95;101708.40;105641;1309;23616;-58
2022/12/18 06:56:33;;;;;;;26.10;14.80;;;;;;;7.68;60.49;101707.20;105655;1309;21995;-58
2022/12/18 06:59:00;;;;;;;27.80;15.40;;;;;;;8.02;59.54;101712.61;105621;1309;21979;-58
2022/12/18 07:01:27;;;;;;;24.30;14.50;;;;;;;8.26;59.50;101720.56;105723;1309;23699;-58
2022/12/18 07:03:54;;;;;;;25.70;15.00;;;;;;;8.33;59.55;101724.73;105720;1309;21988;-58
2022/12/18 07:06:22;;;;;;;24.20;14.90;;;;;;;8.34;59.63;101728.75;105763;1308;21970;-58
2022/12/18 07:08:48;;;;;;;26.00;15.70;;;;;;;8.47;59.46;101727.61;105768;1309;21963;-59
2022/12/18 10:06:39;;;;;;;16.70;9.90;;;;;;;3.41;90.46;101946.61;104496;1310;1002923;-59
2022/12/18 10:09:27;;;;;;;18.30;9.50;;;;;;;6.31;71.33;101934.08;105386;1307;22093;-57
2022/12/18 10:12:31;;;;;;;14.90;8.80;;;;;;;7.33;65.38;101926.80;105562;1313;21976;-56
2022/12/18 10:15:34;;;;;;;16.20;9.40;;;;;;;7.86;62.39;101927.05;105418;1313;21974;-56
2022/12/18 10:18:00;;;;;;;16.60;10.00;;;;;;;7.76;62.20;101927.17;105638;1311;22119;-56
2022/12/18 10:20:41;;;;;;;16.60;10.00;;;;;;;8.01;61.25;101925.30;105365;1309;369815;-56
2022/12/18 10:23:16;;;;;;;17.10;10.10;;;;;;;8.27;58.81;101914.89;105585;1310;21968;-60
2022/12/18 10:26:05;;;;;;;14.70;8.90;;;;;;;8.32;58.95;101914.83;105722;1308;21974;-58
2022/12/18 10:28:36;;;;;;;15.90;9.60;;;;;;;8.45;58.83;101922.27;105664;1308;21976;-57
2022/12/18 10:31:02;;;;;;;18.20;11.50;;;;;;;8.45;56.63;101924.20;105657;1308;21963;-56
2022/12/18 10:33:31;;;;;;;16.20;9.80;;;;;;;7.94;56.05;101923.55;105640;1310;22469;-57
2022/12/18 10:35:57;;;;;;;28.10;18.90;;;;;;;7.51;58.38;101931.10;105770;1309;22038;-57
2022/12/18 10:38:31;;;;;;;22.40;15.10;;;;;;;7.63;59.47;101932.11;105677;1307;21972;-57
2022/12/18 10:41:00;;;;;;;21.30;13.00;;;;;;;7.91;59.39;101930.85;105816;1305;22128;-57
2022/12/18 10:43:32;;;;;;;24.90;16.70;;;;;;;8.01;59.26;101934.92;105813;1307;21972;-56
2022/12/18 10:46:02;;;;;;;40.70;22.70;;;;;;;8.10;59.21;101932.88;105697;1307;23104;-56
2022/12/18 10:48:55;;;;;;;27.10;14.90;;;;;;;8.24;58.28;101935.81;105716;1307;21979;-57
2022/12/18 10:51:27;;;;;;;16.20;10.00;;;;;;;8.07;57.52;101934.37;105695;1309;21974;-57
2022/12/18 10:54:05;;;;;;;15.40;9.30;;;;;;;7.89;57.62;101934.47;105670;1304;23657;-57
2022/12/18 10:56:33;;;;;;;13.60;8.70;;;;;;;7.75;57.26;101930.48;105688;1309;23698;-57
2022/12/18 10:59:04;;;;;;;18.50;11.20;;;;;;;7.64;57.21;101936.48;105637;1310;22001;-58
2022/12/18 11:01:54;;;;;;;14.70;9.50;;;;;;;7.72;58.21;101942.98;105665;1309;21958;-57
2022/12/18 11:04:25;;;;;;;16.80;9.80;;;;;;;7.75;57.34;101946.37;105697;1307;23614;-58
2022/12/18 11:07:12;;;;;;;15.00;9.50;;;;;;;7.72;56.44;101942.64;105741;1307;21964;-59
2022/12/18 11:09:39;;;;;;;13.30;8.30;;;;;;;7.78;56.21;101940.32;105582;1307;21969;-58
2022/12/18 11:12:15;;;;;;;14.70;9.20;;;;;;;7.87;56.31;101936.17;105620;1307;21967;-56
2022/12/18 11:14:44;;;;;;;16.70;9.10;;;;;;;7.67;56.34;101947.23;105647;1307;21955;-57
2022/12/18 11:17:25;;;;;;;18.50;10.90;;;;;;;7.47;56.74;101961.23;105675;1307;21960;-57
2022/12/18 11:20:01;;;;;;;21.00;11.00;;;;;;;7.30;57.36;101963.41;105638;1310;21962;-60
2022/12/18 11:22:32;;;;;;;17.40;10.60;;;;;;;7.30;58.14;101971.79;105627;1309;23428;-57
2022/12/18 11:25:12;;;;;;;18.40;9.80;;;;;;;7.48;58.28;101968.76;105637;1304;21954;-58
2022/12/18 11:27:39;;;;;;;13.60;8.20;;;;;;;7.55;56.73;101963.35;105669;1309;21970;-58
2022/12/18 11:30:08;;;;;;;16.10;8.80;;;;;;;7.51;56.41;101967.61;105710;1308;21978;-57
2022/12/18 11:32:38;;;;;;;15.20;8.90;;;;;;;7.40;57.33;101980.61;105669;1310;21939;-58
2022/12/18 11:35:11;;;;;;;13.90;8.60;;;;;;;7.46;58.12;101984.61;105737;1308;21962;-58
2022/12/18 11:37:38;;;;;;;16.50;9.30;;;;;;;7.38;58.39;101988.07;105674;1310;21950;-57
2022/12/18 11:40:37;;;;;;;14.50;8.50;;;;;;;7.32;58.53;101987.38;105856;1310;22049;-58
2022/12/18 11:43:30;;;;;;;14.30;8.20;;;;;;;7.27;58.10;101987.27;105634;1310;23650;-58
2022/12/18 11:46:01;;;;;;;16.60;9.00;;;;;;;6.96;57.26;101986.02;105643;1307;21957;-58
2022/12/18 11:48:28;;;;;;;;;;;;;;;6.69;57.40;101992.08;105731;1307;21988;-58
2022/12/18 11:50:58;;;;;;;14.50;8.10;;;;;;;6.58;58.36;101999.43;105789;1310;21957;-58
2022/12/18 11:53:25;;;;;;;14.70;7.90;;;;;;;6.46;57.51;102002.20;105611;1309;21966;-57
2022/12/18 11:56:00;;;;;;;15.70;9.20;;;;;;;6.37;58.43;102000.36;105576;1308;21974;-58
2022/12/18 11:58:26;;;;;;;17.70;10.10;;;;;;;6.26;58.80;102003.52;105311;1310;1003821;-57
2022/12/18 12:01:19;;;;;;;14.70;8.60;;;;;;;6.32;59.40;102004.39;105588;1310;21977;-58
2022/12/18 12:04:01;;;;;;;14.50;9.60;;;;;;;6.35;59.22;102007.29;105547;1307;21969;-60
2022/12/18 12:06:48;;;;;;;15.80;8.70;;;;;;;6.42;59.69;102010.61;105588;1310;21969;-58
2022/12/18 12:09:37;;;;;;;17.50;9.30;;;;;;;6.42;59.79;102009.94;105599;1307;21966;-58
2022/12/18 12:12:30;;;;;;;16.90;10.80;;;;;;;6.49;59.34;102014.69;105617;1299;23736;-57
2022/12/18 12:15:12;;;;;;;16.80;9.70;;;;;;;6.49;59.46;102014.17;104870;1308;1002777;-58
2022/12/18 12:17:45;;;;;;;15.90;9.70;;;;;;;6.49;59.25;102022.89;105601;1310;21973;-57
2022/12/18 12:20:21;;;;;;;18.50;9.90;;;;;;;6.42;58.84;102036.26;105591;1309;22001;-59
2022/12/18 12:22:55;;;;;;;16.20;9.20;;;;;;;6.37;59.27;102044.98;105737;1305;21949;-57
2022/12/18 12:25:45;;;;;;;18.90;11.00;;;;;;;6.43;59.28;102050.94;105677;1308;21986;-57
2022/12/18 12:28:36;;;;;;;19.20;10.90;;;;;;;6.39;58.88;102053.44;105752;1305;21949;-57
2022/12/18 12:31:40;;;;;;;17.00;10.20;;;;;;;6.31;59.33;102058.60;105739;1310;21969;-57
2022/12/18 12:34:23;;;;;;;19.40;10.80;;;;;;;6.22;59.41;102064.23;105619;1309;21973;-58
2022/12/18 12:37:08;;;;;;;20.00;11.60;;;;;;;6.25;60.07;102066.94;105673;1307;21960;-57
2022/12/18 12:39:37;;;;;;;21.00;11.60;;;;;;;6.42;60.18;102064.87;105001;1307;1002776;-57
2022/12/18 12:44:58;;;;;;;21.20;12.20;;;;;;;6.44;59.99;102076.77;105593;1308;21978;-57
2022/12/18 12:47:33;;;;;;;21.60;11.40;;;;;;;6.34;59.07;102074.55;105805;1307;22013;-58
2022/12/18 12:49:59;;;;;;;20.80;11.30;;;;;;;6.18;59.40;102074.89;105757;1304;21959;-57
2022/12/18 12:52:35;;;;;;;20.70;13.00;;;;;;;6.03;59.48;102075.27;105648;1307;22011;-57
2022/12/18 12:55:05;;;;;;;21.50;12.40;;;;;;;5.95;59.37;102083.52;105684;1307;22083;-57
2022/12/18 12:57:34;;;;;;;22.10;12.10;;;;;;;5.98;60.25;102087.27;105775;1300;21962;-57
2022/12/18 13:00:09;;;;;;;22.90;12.20;;;;;;;5.95;59.67;102088.05;105806;1307;21966;-57
2022/12/18 13:02:44;;;;;;;20.40;12.60;;;;;;;5.94;60.02;102093.95;105677;1308;21996;-57
2022/12/18 13:05:13;;;;;;;22.40;12.70;;;;;;;6.00;59.66;102098.67;105622;1307;22193;-57
2022/12/18 13:08:00;;;;;;;27.40;14.30;;;;;;;6.02;59.69;102095.46;105756;1308;22005;-57
2022/12/18 13:10:30;;;;;;;34.80;19.10;;;;;;;6.03;60.14;102100.19;105724;1310;21971;-57
2022/12/18 13:12:56;;;;;;;28.30;15.00;;;;;;;5.97;59.72;102101.04;105822;1309;21967;-57
2022/12/18 13:15:24;;;;;;;21.00;12.80;;;;;;;5.88;59.51;102110.27;105783;1310;21976;-58
2022/12/18 13:18:10;;;;;;;22.10;13.60;;;;;;;5.75;59.70;102114.02;105749;1310;21994;-58
2022/12/18 13:20:46;;;;;;;24.50;13.10;;;;;;;5.78;59.98;102113.94;105817;1308;22011;-57
2022/12/18 13:23:22;;;;;;;27.10;13.80;;;;;;;5.76;60.34;102114.23;105653;1307;21974;-57
2022/12/18 13:25:50;;;;;;;30.10;13.80;;;;;;;5.76;60.32;102119.98;105659;1300;21993;-58
2022/12/18 13:28:39;;;;;;;29.90;16.50;;;;;;;5.95;60.40;102115.42;105719;1309;21980;-57
2022/12/18 13:31:05;;;;;;;34.70;18.10;;;;;;;5.87;58.88;102121.58;105574;1310;22008;-57
2022/12/18 13:33:45;;;;;;;34.30;17.50;;;;;;;5.77;58.95;102129.39;105709;1308;21982;-57
2022/12/18 13:36:27;;;;;;;34.10;18.10;;;;;;;5.74;59.65;102132.79;105757;1307;21980;-57
2022/12/18 13:39:18;;;;;;;44.30;29.20;;;;;;;5.77;59.78;102139.35;105686;1308;22036;-57
2022/12/18 13:41:49;;;;;;;38.30;22.90;;;;;;;5.83;59.37;102141.98;105638;1304;21972;-58
2022/12/18 13:44:33;;;;;;;75.80;43.60;;;;;;;6.01;59.30;102145.10;105637;1309;23079;-57
2022/12/18 13:46:59;;;;;;;39.10;23.30;;;;;;;6.09;59.19;102147.11;104913;1308;1002458;-57
2022/12/18 13:49:39;;;;;;;61.10;36.80;;;;;;;6.07;58.75;102144.61;105644;1307;23694;-57
2022/12/18 13:52:35;;;;;;;218.60;139.20;;;;;;;6.17;59.28;102145.29;104907;1301;1002268;-57
2022/12/18 14:18:21;;;;;;;21.50;12.50;;;;;;;1.92;90.19;102188.08;105176;1312;548257;-57
2022/12/18 14:20:47;;;;;;;23.40;13.10;;;;;;;4.64;72.10;102182.05;105316;1315;22237;-57
2022/12/18 14:23:29;;;;;;;21.40;12.50;;;;;;;5.06;68.27;102183.55;105247;1315;21974;-58
2022/12/18 14:25:55;;;;;;;22.90;13.10;;;;;;;5.32;66.88;102182.45;105148;1316;21969;-57
2022/12/18 14:28:21;;;;;;;23.40;14.20;;;;;;;5.46;65.65;102187.88;105146;1312;22023;-58
2022/12/18 14:30:48;;;;;;;24.80;12.90;;;;;;;5.53;65.15;102185.52;105319;1313;189704;-57
2022/12/18 14:33:33;;;;;;;22.80;11.80;;;;;;;5.46;63.66;102188.20;105574;1306;21971;-57
2022/12/18 14:36:04;;;;;;;20.30;12.00;;;;;;;5.42;62.90;102189.44;105425;1309;22965;-57
2022/12/18 14:38:39;;;;;;;;;;;;;;;5.27;62.68;102195.33;105553;1313;21943;-57
2022/12/18 14:41:13;;;;;;;19.90;9.90;;;;;;;5.23;62.45;102199.15;105500;1308;21970;-57
2022/12/18 14:43:42;;;;;;;17.20;10.10;;;;;;;5.21;62.15;102199.61;104662;1308;1002629;-57
2022/12/18 14:46:32;;;;;;;18.40;9.90;;;;;;;5.29;62.46;102202.69;105497;1314;21979;-57
2022/12/18 14:49:03;;;;;;;18.50;9.80;;;;;;;5.21;61.62;102207.59;105490;1303;22017;-58
2022/12/18 14:51:30;;;;;;;17.10;9.00;;;;;;;5.23;61.30;102208.55;105507;1315;21986;-57
2022/12/18 14:54:07;;;;;;;17.30;9.50;;;;;;;5.38;61.24;102213.82;105536;1315;22053;-58
2022/12/18 14:56:37;;;;;;;21.90;11.80;;;;;;;5.37;61.07;102217.63;105360;1312;21977;-57
2022/12/18 14:59:12;;;;;;;21.90;14.00;;;;;;;5.36;60.91;102225.06;105499;1312;21973;-57
2022/12/18 15:01:50;;;;;;;19.00;10.20;;;;;;;5.43;61.12;102224.83;105445;1312;23080;-58
2022/12/18 15:04:25;;;;;;;18.90;10.40;;;;;;;5.42;60.57;102230.89;105484;1312;21974;-58
2022/12/18 15:07:06;;;;;;;21.70;12.30;;;;;;;5.34;59.74;102233.72;105519;1311;21959;-58
2022/12/18 15:09:34;;;;;;;21.00;13.10;;;;;;;5.36;59.87;102237.63;104855;1315;1003232;-57
2022/12/18 15:12:01;;;;;;;16.00;9.50;;;;;;;5.38;59.69;102237.70;104756;1315;1002279;-58
2022/12/18 15:14:29;;;;;;;19.60;10.70;;;;;;;5.33;59.90;102244.29;105409;1313;21976;-58
2022/12/18 15:16:55;;;;;;;20.30;12.00;;;;;;;5.34;59.34;102248.15;105531;1312;21977;-58
2022/12/18 15:19:35;;;;;;;160.70;81.50;;;;;;;5.44;59.49;102258.66;105408;1311;21984;-59
2022/12/18 15:22:01;;;;;;;115.20;59.40;;;;;;;5.55;59.73;102264.29;105485;1312;21985;-57
2022/12/18 15:24:31;;;;;;;34.40;22.10;;;;;;;5.63;59.63;102269.64;104771;1309;1002640;-57
2022/12/18 15:26:58;;;;;;;21.50;13.70;;;;;;;5.69;59.91;102274.92;105524;1312;21973;-58
2022/12/18 15:29:25;;;;;;;26.90;17.20;;;;;;;5.73;59.72;102277.17;105372;1312;22093;-58
2022/12/18 15:32:05;;;;;;;25.90;19.50;;;;;;;5.65;58.95;102282.95;105522;1312;23233;-57
2022/12/18 15:34:31;;;;;;;29.60;18.00;;;;;;;5.61;58.76;102283.34;105421;1312;21969;-58
2022/12/18 15:36:58;;;;;;;35.30;22.10;;;;;;;5.57;58.98;102285.44;105519;1309;21987;-58
2022/12/18 15:39:24;;;;;;;26.40;16.20;;;;;;;5.47;59.46;102285.22;105553;1312;21980;-58
2022/12/18 15:44:34;;;;;;;32.50;21.00;;;;;;;5.77;59.47;102290.55;104652;1312;1002424;-58
2022/12/18 15:47:00;;;;;;;27.50;16.10;;;;;;;5.88;60.01;102296.19;104630;1312;1002986;-58
2022/12/18 15:49:25;;;;;;;40.60;23.80;;;;;;;5.92;59.52;102300.54;104787;1313;1003168;-58
2022/12/18 15:51:57;;;;;;;76.60;41.80;;;;;;;5.92;58.89;102308.90;105494;1312;21972;-57
2022/12/18 15:57:23;;;;;;;27.20;16.60;;;;;;;5.90;58.70;102316.30;105385;1312;23724;-57
2022/12/18 15:59:51;;;;;;;29.70;18.60;;;;;;;5.78;58.76;102316.71;104873;1312;1002632;-57
2022/12/18 19:31:14;;;;;;;13.70;8.20;;;;;;;1.47;95.69;102514.84;104544;1310;1002255;-57
2022/12/18 19:33:42;;;;;;;17.60;11.90;;;;;;;3.52;79.31;102503.02;105586;1310;24319;-57
2022/12/18 19:36:13;;;;;;;17.40;12.50;;;;;;;4.21;72.96;102504.19;105614;1307;21948;-57
2022/12/18 19:38:39;;;;;;;12.50;8.30;;;;;;;4.51;70.34;102503.13;105619;1307;21964;-56
2022/12/18 19:41:06;;;;;;;12.80;6.70;;;;;;;4.64;69.00;102503.39;105557;1306;21963;-56
2022/12/18 19:43:34;;;;;;;17.80;9.90;;;;;;;4.72;67.02;102507.92;105398;1307;412145;-56
2022/12/18 19:46:03;;;;;;;13.20;7.00;;;;;;;4.77;66.05;102512.70;106011;1305;21965;-57
2022/12/18 19:48:30;;;;;;;14.10;8.30;;;;;;;4.83;65.86;102519.73;105227;1306;1002553;-57
2022/12/18 19:50:55;;;;;;;14.70;7.60;;;;;;;4.77;64.56;102523.66;105931;1307;21972;-57
2022/12/18 19:53:21;;;;;;;17.00;9.10;;;;;;;4.83;64.55;102525.48;105933;1307;21967;-57
2022/12/18 19:55:47;;;;;;;24.10;11.20;;;;;;;4.92;64.27;102528.33;105974;1306;22171;-57
2022/12/18 19:58:14;;;;;;;18.80;8.70;;;;;;;4.89;63.44;102528.19;105952;1307;22192;-58
2022/12/18 20:00:40;;;;;;;21.00;10.50;;;;;;;5.06;63.70;102530.85;106085;1307;23785;-58
2022/12/18 20:03:06;;;;;;;20.50;10.00;;;;;;;5.16;63.33;102535.31;106073;1305;21966;-57
2022/12/18 20:05:32;;;;;;;21.00;10.50;;;;;;;5.17;62.85;102540.77;106068;1307;21962;-57
2022/12/18 20:07:58;;;;;;;17.50;8.80;;;;;;;5.19;62.11;102542.92;106043;1307;21981;-57
2022/12/18 20:10:24;;;;;;;18.60;9.30;;;;;;;5.16;62.56;102539.85;105338;1306;1002823;-58
2022/12/18 20:12:50;;;;;;;18.70;9.50;;;;;;;5.17;62.60;102542.48;106062;1307;21959;-57
2022/12/18 20:15:16;;;;;;;12.40;6.90;;;;;;;5.20;62.05;102545.90;106040;1307;22080;-57
2022/12/18 20:17:43;;;;;;;23.90;10.60;;;;;;;5.24;61.82;102547.48;106006;1302;21966;-56
2022/12/18 20:20:10;;;;;;;19.00;9.50;;;;;;;5.21;61.12;102554.67;105897;1307;21974;-58